Time;durP1;ratioP1;P1;durP2;ratioP2;P2;SDS_P1;SDS_P2;PMS_P1;PMS_P2;Temp;Humidity;BMP_temperature;BMP_pressure;BME280_temperature;BME280_humidity;BME280_pressure;Samples;Min_cycle;Max_cycle;Signal;HPM_P1;HPM_P2
2022/03/10 00:00:14;;;;;;;23.40;11.60;;;3.00;79.80;;;;;;5051425;28;20049;-69
2022/03/10 00:02:42;;;;;;;21.60;12.98;;;3.00;79.50;;;;;;5051531;28;20515;-69
2022/03/10 00:05:16;;;;;;;18.50;11.77;;;3.00;79.50;;;;;;5051776;28;20041;-69
2022/03/10 00:07:42;;;;;;;20.67;12.40;;;2.90;79.70;;;;;;5051756;28;20048;-69
2022/03/10 00:10:08;;;;;;;18.92;12.55;;;2.80;79.70;;;;;;5051807;28;20405;-69
2022/03/10 00:12:34;;;;;;;20.38;12.05;;;2.60;80.30;;;;;;5051500;28;20473;-69
2022/03/10 00:15:03;;;;;;;19.42;11.35;;;2.50;80.50;;;;;;5051694;28;20036;-69
2022/03/10 00:17:29;;;;;;;18.70;11.98;;;2.40;81.00;;;;;;5052373;28;20578;-69
2022/03/10 00:19:55;;;;;;;20.75;13.63;;;2.30;81.70;;;;;;5051184;28;20144;-69
2022/03/10 00:22:21;;;;;;;16.98;11.70;;;2.20;82.00;;;;;;5051717;28;20047;-69
2022/03/10 00:24:47;;;;;;;19.90;12.27;;;2.10;81.90;;;;;;5052662;28;20041;-69
2022/03/10 00:27:12;;;;;;;19.75;11.68;;;2.10;81.80;;;;;;5051159;28;20033;-69
2022/03/10 00:29:38;;;;;;;19.25;12.00;;;2.00;81.90;;;;;;5051237;28;20080;-69
2022/03/10 00:32:04;;;;;;;18.73;12.48;;;2.00;82.00;;;;;;5084965;28;20396;-69
2022/03/10 00:34:32;;;;;;;19.77;12.38;;;2.00;82.10;;;;;;5051131;28;20051;-69
2022/03/10 00:36:57;;;;;;;21.63;12.70;;;2.00;82.00;;;;;;5084665;28;20088;-69
2022/03/10 00:39:23;;;;;;;15.20;11.40;;;1.90;82.10;;;;;;5051003;28;20072;-69
2022/03/10 00:41:49;;;;;;;17.63;12.32;;;1.90;82.30;;;;;;5084690;28;20037;-69
2022/03/10 00:44:16;;;;;;;17.08;12.05;;;1.80;83.20;;;;;;5051110;28;20037;-69
2022/03/10 00:46:42;;;;;;;18.38;11.85;;;1.70;83.80;;;;;;5084556;28;20100;-69
2022/03/10 00:49:08;;;;;;;19.40;12.13;;;1.60;84.50;;;;;;5084746;28;20049;-69
2022/03/10 00:51:34;;;;;;;19.90;11.73;;;1.60;84.20;;;;;;5051036;28;20072;-69
2022/03/10 00:54:00;;;;;;;19.13;12.77;;;1.50;85.40;;;;;;5084984;28;20359;-69
2022/03/10 00:56:26;;;;;;;20.83;12.40;;;1.50;85.30;;;;;;5054294;28;20045;-69
2022/03/10 00:58:51;;;;;;;21.27;13.02;;;1.40;85.50;;;;;;5086818;28;20041;-69
2022/03/10 01:01:17;;;;;;;19.60;12.27;;;1.50;85.50;;;;;;5055612;28;20041;-69
2022/03/10 01:03:43;;;;;;;22.90;12.18;;;1.50;86.00;;;;;;5088265;28;20492;-69
2022/03/10 01:06:09;;;;;;;22.02;12.93;;;1.60;86.60;;;;;;5071540;28;20048;-69
2022/03/10 01:08:34;;;;;;;19.38;12.90;;;1.60;86.50;;;;;;5054477;28;20482;-69
2022/03/10 01:11:00;;;;;;;18.92;12.07;;;1.70;87.20;;;;;;5054537;28;20033;-69
2022/03/10 01:13:26;;;;;;;20.42;12.40;;;1.70;86.70;;;;;;5087783;28;20041;-69
2022/03/10 01:15:52;;;;;;;21.27;11.98;;;1.70;86.30;;;;;;5088035;28;20041;-69
2022/03/10 01:18:18;;;;;;;22.40;12.52;;;1.70;85.90;;;;;;5054137;28;20114;-69
2022/03/10 01:20:44;;;;;;;19.42;11.63;;;1.70;85.50;;;;;;5070842;28;20440;-69
2022/03/10 01:23:10;;;;;;;18.13;12.27;;;1.60;85.70;;;;;;5037576;28;20044;-69
2022/03/10 01:25:36;;;;;;;21.17;12.23;;;1.60;86.70;;;;;;5087847;28;20146;-69
2022/03/10 01:28:02;;;;;;;17.83;12.32;;;1.50;87.00;;;;;;5053654;28;20432;-69
2022/03/10 01:30:28;;;;;;;18.17;11.10;;;1.40;87.30;;;;;;5055125;28;20049;-69
2022/03/10 01:32:54;;;;;;;18.30;11.88;;;1.40;87.20;;;;;;5054304;28;20045;-69
2022/03/10 01:35:19;;;;;;;19.73;11.65;;;1.40;87.40;;;;;;5055427;28;20446;-69
2022/03/10 01:37:45;;;;;;;22.38;12.30;;;1.50;88.10;;;;;;5037353;28;20080;-69
2022/03/10 01:40:14;;;;;;;20.52;11.20;;;1.50;88.00;;;;;;5053743;28;20056;-69
2022/03/10 01:42:41;;;;;;;18.63;12.32;;;1.50;88.50;;;;;;5053952;28;20033;-69
2022/03/10 01:45:08;;;;;;;16.23;11.63;;;1.50;88.10;;;;;;5037428;28;20049;-69
2022/03/10 01:47:34;;;;;;;21.08;12.98;;;1.50;88.40;;;;;;5053610;28;20073;-69
2022/03/10 01:50:01;;;;;;;16.23;11.27;;;1.40;88.00;;;;;;5053572;28;20052;-69
2022/03/10 01:52:27;;;;;;;19.05;11.93;;;1.50;88.30;;;;;;5053784;28;20369;-69
2022/03/10 01:54:53;;;;;;;20.40;11.98;;;1.50;88.30;;;;;;5053585;28;20123;-69
2022/03/10 01:57:19;;;;;;;16.67;11.15;;;1.50;88.30;;;;;;5053385;28;20060;-69
2022/03/10 01:59:45;;;;;;;20.35;12.00;;;1.50;88.20;;;;;;5053236;28;20036;-69
2022/03/10 02:02:11;;;;;;;19.02;11.38;;;1.60;88.00;;;;;;5054680;28;20029;-70
2022/03/10 02:04:37;;;;;;;20.52;12.40;;;1.60;87.90;;;;;;5053215;28;20378;-69
2022/03/10 02:07:06;;;;;;;16.88;11.98;;;1.70;87.80;;;;;;5036457;28;20037;-70
2022/03/10 02:12:17;;;;;;;18.75;12.55;;;1.60;87.50;;;;;;5054668;28;20045;-69
2022/03/10 02:17:28;;;;;;;21.42;12.52;;;1.40;88.10;;;;;;5054288;28;20069;-69
2022/03/10 02:19:56;;;;;;;17.25;11.73;;;1.30;88.10;;;;;;5054240;28;20129;-70
2022/03/10 02:22:23;;;;;;;19.73;12.57;;;1.30;88.60;;;;;;5052763;28;20036;-69
2022/03/10 02:24:50;;;;;;;18.10;11.93;;;1.40;89.10;;;;;;5036625;28;20124;-70
2022/03/10 02:27:25;;;;;;;18.88;12.15;;;1.30;88.90;;;;;;5053172;28;20405;-69
2022/03/10 02:29:54;;;;;;;18.60;12.45;;;1.40;88.90;;;;;;5051685;28;20432;-69
2022/03/10 02:32:20;;;;;;;20.23;12.98;;;1.40;89.10;;;;;;5054020;28;20097;-69
2022/03/10 02:34:47;;;;;;;20.17;12.73;;;1.40;89.10;;;;;;5036263;28;20523;-70
2022/03/10 02:37:14;;;;;;;20.95;13.00;;;1.40;89.00;;;;;;5052979;28;20504;-69
2022/03/10 02:39:41;;;;;;;20.10;12.02;;;1.40;89.00;;;;;;5054014;28;20041;-69
2022/03/10 02:42:08;;;;;;;21.27;12.75;;;1.40;88.90;;;;;;5052935;28;20041;-69
2022/03/10 02:44:39;;;;;;;18.20;12.52;;;1.40;89.20;;;;;;5052766;28;20037;-69
2022/03/10 02:47:05;;;;;;;20.90;13.30;;;1.40;89.50;;;;;;5052742;28;20059;-69
2022/03/10 02:49:31;;;;;;;21.35;12.82;;;1.30;89.50;;;;;;5052492;28;20491;-69
2022/03/10 02:51:56;;;;;;;20.52;13.05;;;1.20;89.70;;;;;;5052412;28;20044;-69
2022/03/10 02:54:22;;;;;;;21.27;13.88;;;1.20;90.00;;;;;;5052572;28;20123;-69
2022/03/10 02:56:48;;;;;;;23.83;12.40;;;1.20;90.20;;;;;;5053895;28;20689;-70
2022/03/10 02:59:14;;;;;;;21.88;13.65;;;1.20;90.20;;;;;;5050989;28;20116;-70
2022/03/10 03:01:39;;;;;;;18.38;12.93;;;1.20;90.30;;;;;;5035756;28;20040;-69
2022/03/10 03:04:05;;;;;;;22.08;13.45;;;1.20;90.10;;;;;;5052184;28;20102;-70
2022/03/10 03:06:32;;;;;;;18.65;11.95;;;1.20;90.00;;;;;;5053361;28;20037;-70
2022/03/10 03:08:57;;;;;;;22.70;12.68;;;1.30;90.10;;;;;;5052183;28;20048;-70
2022/03/10 03:11:23;;;;;;;18.50;12.23;;;1.30;90.10;;;;;;5052484;28;20045;-70
2022/03/10 03:13:49;;;;;;;23.25;12.38;;;1.30;90.00;;;;;;5052481;28;20040;-69
2022/03/10 03:16:15;;;;;;;20.75;12.32;;;1.40;90.20;;;;;;5053466;28;20389;-69
2022/03/10 03:18:41;;;;;;;24.30;12.55;;;1.40;90.10;;;;;;5051246;28;20061;-69
2022/03/10 03:21:06;;;;;;;18.33;12.63;;;1.40;90.10;;;;;;5051975;28;20045;-69
2022/03/10 03:23:32;;;;;;;21.08;13.40;;;1.40;89.90;;;;;;5051873;28;20402;-69
2022/03/10 03:25:58;;;;;;;19.63;13.13;;;1.40;89.90;;;;;;5035398;28;20040;-69
2022/03/10 03:28:24;;;;;;;21.33;13.45;;;1.30;90.00;;;;;;5050388;28;20126;-69
2022/03/10 03:30:50;;;;;;;18.75;12.07;;;1.30;90.00;;;;;;5085463;28;20099;-69
2022/03/10 03:33:17;;;;;;;21.95;12.45;;;1.20;90.10;;;;;;5085485;28;20080;-69
2022/03/10 03:35:43;;;;;;;20.13;12.18;;;1.20;90.20;;;;;;5085829;28;20059;-69
2022/03/10 03:38:11;;;;;;;20.55;13.02;;;1.20;90.20;;;;;;5052131;28;20044;-69
2022/03/10 03:40:37;;;;;;;18.33;11.98;;;1.20;90.20;;;;;;5051616;28;20048;-69
2022/03/10 03:43:03;;;;;;;20.83;12.70;;;1.20;90.40;;;;;;5038098;28;20051;-69
2022/03/10 03:45:28;;;;;;;17.60;11.30;;;1.30;90.30;;;;;;5085382;28;20484;-69
2022/03/10 03:47:55;;;;;;;18.55;11.48;;;1.30;90.20;;;;;;5085469;28;20128;-69
2022/03/10 03:50:21;;;;;;;22.00;12.63;;;1.40;90.20;;;;;;5085441;28;20106;-69
2022/03/10 03:52:47;;;;;;;24.13;12.07;;;1.40;90.00;;;;;;5085369;28;20040;-69
2022/03/10 03:55:13;;;;;;;19.15;11.70;;;1.50;89.90;;;;;;5051773;28;20045;-69
2022/03/10 03:57:39;;;;;;;21.17;12.40;;;1.50;89.60;;;;;;5052149;28;20081;-69
2022/03/10 04:00:08;;;;;;;18.60;12.75;;;1.50;89.30;;;;;;5084925;28;20098;-69
2022/03/10 04:02:34;;;;;;;20.60;12.05;;;1.40;89.50;;;;;;5052022;28;20045;-69
2022/03/10 04:04:59;;;;;;;17.98;13.38;;;1.30;89.80;;;;;;5051656;28;20040;-69
2022/03/10 04:07:25;;;;;;;23.45;14.05;;;1.20;90.10;;;;;;5085501;28;20041;-69
2022/03/10 04:09:51;;;;;;;21.30;12.93;;;1.10;90.30;;;;;;5085123;28;20431;-69
2022/03/10 04:12:17;;;;;;;23.00;13.65;;;1.00;90.60;;;;;;5085333;28;20045;-69
2022/03/10 04:14:42;;;;;;;20.65;13.27;;;1.00;90.80;;;;;;5052660;28;20067;-70
2022/03/10 04:17:08;;;;;;;23.67;13.25;;;1.00;91.00;;;;;;5052728;28;20048;-69
2022/03/10 04:19:34;;;;;;;20.33;12.77;;;1.00;91.10;;;;;;5068169;28;20052;-69
2022/03/10 04:22:01;;;;;;;20.70;13.73;;;0.90;91.20;;;;;;5051652;28;20559;-70
2022/03/10 04:24:27;;;;;;;20.67;14.02;;;0.90;91.30;;;;;;5067847;28;20481;-70
2022/03/10 04:26:53;;;;;;;24.15;13.82;;;0.90;91.50;;;;;;5084967;28;20041;-69
2022/03/10 04:29:19;;;;;;;20.75;13.30;;;0.80;91.70;;;;;;5051801;28;20041;-69
2022/03/10 04:31:44;;;;;;;19.88;13.40;;;0.80;91.90;;;;;;5055132;28;20040;-69
2022/03/10 04:34:10;;;;;;;21.92;13.30;;;0.80;92.30;;;;;;5038704;28;20081;-69
2022/03/10 04:36:36;;;;;;;18.45;11.75;;;0.80;92.10;;;;;;5055302;28;20095;-69
2022/03/10 04:39:03;;;;;;;22.00;13.02;;;0.90;92.20;;;;;;5054994;28;20052;-69
2022/03/10 04:41:30;;;;;;;20.02;12.40;;;0.90;92.10;;;;;;5055230;28;20128;-69
2022/03/10 04:43:56;;;;;;;21.80;12.95;;;0.90;92.10;;;;;;5055095;28;20094;-69
2022/03/10 04:46:23;;;;;;;20.38;13.55;;;1.00;92.20;;;;;;5054930;28;20128;-70
2022/03/10 04:48:49;;;;;;;20.02;13.52;;;1.00;92.20;;;;;;5056173;28;20095;-69
2022/03/10 04:51:15;;;;;;;22.70;13.00;;;1.00;92.30;;;;;;5055004;28;20590;-69
2022/03/10 04:53:41;;;;;;;19.70;13.15;;;1.00;92.60;;;;;;5055840;28;20052;-69
2022/03/10 04:56:07;;;;;;;20.63;14.98;;;1.00;92.50;;;;;;5056303;28;20037;-69
2022/03/10 04:58:33;;;;;;;24.20;13.98;;;0.90;92.60;;;;;;5053665;28;20566;-70
2022/03/10 05:00:59;;;;;;;20.30;12.40;;;0.90;92.50;;;;;;5054369;28;20045;-69
2022/03/10 05:03:25;;;;;;;20.05;12.50;;;0.90;92.50;;;;;;5055807;28;20048;-69
2022/03/10 05:05:51;;;;;;;20.80;12.52;;;1.00;92.70;;;;;;5054460;28;20048;-70
2022/03/10 05:08:17;;;;;;;21.83;12.43;;;1.10;92.70;;;;;;5054429;28;20040;-70
2022/03/10 05:10:42;;;;;;;20.83;13.98;;;1.10;92.60;;;;;;5037932;28;20090;-69
2022/03/10 05:13:08;;;;;;;20.30;12.77;;;1.20;92.60;;;;;;5055691;28;20477;-70
2022/03/10 05:15:34;;;;;;;24.15;13.85;;;1.10;92.40;;;;;;5054469;28;20481;-69
2022/03/10 05:18:02;;;;;;;21.60;13.10;;;1.10;92.40;;;;;;5051327;28;20053;-69
2022/03/10 05:20:29;;;;;;;27.25;14.82;;;1.10;92.40;;;;;;5054036;28;20053;-69
2022/03/10 05:22:57;;;;;;;20.05;12.27;;;1.10;92.50;;;;;;5055478;28;20040;-69
2022/03/10 05:25:25;;;;;;;19.88;12.80;;;1.10;92.50;;;;;;5054100;28;20036;-70
2022/03/10 05:27:51;;;;;;;23.45;14.13;;;1.00;92.60;;;;;;5053205;28;20090;-70
2022/03/10 05:30:19;;;;;;;20.75;13.98;;;1.00;92.70;;;;;;5053973;28;20106;-69
2022/03/10 05:32:45;;;;;;;21.60;14.02;;;0.90;92.70;;;;;;5055568;28;20044;-69
2022/03/10 05:35:16;;;;;;;25.00;15.63;;;0.80;92.80;;;;;;5087520;28;20128;-69
2022/03/10 05:37:43;;;;;;;22.30;13.68;;;0.70;93.20;;;;;;5053998;28;20123;-69
2022/03/10 05:40:12;;;;;;;23.83;14.32;;;0.60;93.30;;;;;;5069759;28;20045;-69
2022/03/10 05:42:39;;;;;;;23.02;14.35;;;0.60;93.70;;;;;;5053469;28;20045;-69
2022/03/10 05:45:07;;;;;;;23.80;14.77;;;0.60;93.90;;;;;;5054931;28;20037;-69
2022/03/10 05:47:34;;;;;;;20.48;13.45;;;0.60;93.90;;;;;;5053724;28;20123;-71
2022/03/10 05:50:01;;;;;;;22.30;13.65;;;0.60;94.00;;;;;;5053873;28;20123;-70
2022/03/10 05:52:27;;;;;;;24.65;14.38;;;0.60;94.50;;;;;;5053760;28;20043;-70
2022/03/10 05:54:53;;;;;;;22.40;13.82;;;0.60;94.70;;;;;;5053519;28;20041;-70
2022/03/10 05:57:19;;;;;;;23.38;15.57;;;0.60;94.90;;;;;;5087097;28;20041;-69
2022/03/10 05:59:44;;;;;;;21.63;12.52;;;0.70;95.00;;;;;;5054711;28;20033;-70
2022/03/10 06:02:10;;;;;;;19.92;12.63;;;0.70;95.10;;;;;;5070525;28;20638;-70
2022/03/10 06:04:36;;;;;;;20.60;13.25;;;0.80;95.20;;;;;;5087167;28;20049;-69
2022/03/10 06:07:02;;;;;;;22.05;13.85;;;0.90;95.10;;;;;;5054552;28;20061;-70
2022/03/10 06:09:28;;;;;;;19.15;12.45;;;0.90;94.90;;;;;;5053493;28;20053;-70
2022/03/10 06:11:54;;;;;;;25.95;13.57;;;1.00;94.80;;;;;;5039239;28;20041;-70
2022/03/10 06:14:20;;;;;;;22.52;13.52;;;1.00;94.80;;;;;;5086895;28;20045;-70
2022/03/10 06:16:46;;;;;;;21.63;13.52;;;1.00;94.90;;;;;;5070144;28;20045;-70
2022/03/10 06:19:11;;;;;;;21.52;13.38;;;1.00;95.00;;;;;;5086546;28;20107;-70
2022/03/10 06:21:38;;;;;;;22.50;13.57;;;1.00;95.10;;;;;;5036706;28;20102;-70
2022/03/10 06:24:05;;;;;;;19.25;13.02;;;1.00;95.10;;;;;;5086668;28;20279;-70
2022/03/10 06:26:31;;;;;;;21.25;14.23;;;1.00;95.20;;;;;;5052828;28;20041;-70
2022/03/10 06:28:57;;;;;;;26.52;14.05;;;1.00;95.50;;;;;;5067351;28;20042;-70
2022/03/10 06:31:24;;;;;;;22.00;14.32;;;1.00;95.70;;;;;;5032737;28;20045;-69
2022/03/10 06:33:51;;;;;;;22.80;12.95;;;1.00;95.60;;;;;;5032993;28;20099;-69
2022/03/10 06:36:17;;;;;;;19.98;11.98;;;0.90;95.80;;;;;;5032816;28;20052;-69
2022/03/10 06:38:43;;;;;;;25.80;13.80;;;1.00;96.30;;;;;;5049595;28;20045;-70
2022/03/10 06:41:09;;;;;;;22.88;14.57;;;1.10;96.80;;;;;;5032674;28;20124;-70
2022/03/10 06:43:35;;;;;;;23.00;13.95;;;1.20;96.60;;;;;;5066090;28;20079;-69
2022/03/10 06:46:01;;;;;;;19.10;12.52;;;1.20;96.50;;;;;;5033096;28;20034;-70
2022/03/10 06:48:26;;;;;;;23.35;13.10;;;1.30;96.60;;;;;;5032862;28;20048;-69
2022/03/10 06:50:52;;;;;;;20.50;12.80;;;1.40;96.80;;;;;;5033871;28;20470;-69
2022/03/10 06:53:18;;;;;;;21.02;13.50;;;1.50;97.00;;;;;;5034294;28;20174;-69
2022/03/10 06:55:44;;;;;;;22.02;15.10;;;1.70;97.10;;;;;;5032620;28;20064;-69
2022/03/10 06:58:10;;;;;;;22.15;13.43;;;1.90;97.00;;;;;;5031266;28;20474;-69
2022/03/10 07:00:36;;;;;;;22.23;12.95;;;2.00;97.40;;;;;;5032265;28;20057;-69
2022/03/10 07:03:02;;;;;;;20.98;12.70;;;2.20;96.60;;;;;;5049407;28;20041;-70
2022/03/10 07:05:28;;;;;;;22.65;13.35;;;2.40;96.00;;;;;;5032311;28;20037;-73
2022/03/10 07:07:54;;;;;;;21.23;13.10;;;2.50;95.70;;;;;;5033402;28;20052;-70
2022/03/10 07:10:20;;;;;;;20.95;13.25;;;2.70;95.20;;;;;;5032151;28;20045;-70
2022/03/10 07:12:46;;;;;;;20.85;12.30;;;2.90;94.50;;;;;;5031995;28;20128;-70
2022/03/10 07:15:12;;;;;;;20.17;14.00;;;2.90;93.90;;;;;;5032020;28;20134;-70
2022/03/10 07:17:39;;;;;;;19.65;12.43;;;3.00;93.80;;;;;;5032076;28;20087;-69
2022/03/10 07:20:05;;;;;;;22.00;14.07;;;3.00;93.70;;;;;;5032056;28;20046;-70
2022/03/10 07:22:31;;;;;;;20.50;12.10;;;3.10;93.50;;;;;;5033165;28;20485;-70
2022/03/10 07:24:58;;;;;;;19.70;12.88;;;3.20;93.50;;;;;;5068425;28;20045;-71
2022/03/10 07:27:24;;;;;;;23.30;13.57;;;3.20;93.50;;;;;;5015835;28;20037;-70
2022/03/10 07:29:50;;;;;;;18.60;11.77;;;3.30;93.20;;;;;;5031511;28;20041;-70
2022/03/10 07:32:16;;;;;;;24.27;14.90;;;3.40;93.00;;;;;;5065002;28;20687;-69
2022/03/10 07:34:44;;;;;;;19.75;13.30;;;3.50;92.90;;;;;;5032111;28;20064;-69
2022/03/10 07:37:10;;;;;;;21.75;13.23;;;3.60;92.90;;;;;;5033177;28;20041;-71
2022/03/10 07:39:36;;;;;;;21.27;13.23;;;3.70;92.70;;;;;;5031652;28;20504;-71
2022/03/10 07:42:02;;;;;;;20.08;11.77;;;3.80;92.60;;;;;;5031559;28;20041;-71
2022/03/10 07:44:27;;;;;;;20.05;12.02;;;3.90;92.10;;;;;;5065346;28;20050;-70
2022/03/10 07:46:53;;;;;;;20.83;14.77;;;4.10;92.00;;;;;;5031839;28;20037;-70
2022/03/10 07:49:19;;;;;;;22.25;13.77;;;4.20;92.10;;;;;;5048486;28;20498;-69
2022/03/10 07:51:45;;;;;;;23.20;14.45;;;4.30;91.80;;;;;;5031497;28;20486;-71
2022/03/10 07:54:11;;;;;;;21.45;13.93;;;4.50;91.70;;;;;;5031673;28;20037;-73
2022/03/10 07:56:37;;;;;;;20.00;13.13;;;4.60;91.50;;;;;;5032604;28;20139;-71
2022/03/10 07:59:03;;;;;;;22.98;14.02;;;4.80;91.20;;;;;;5030711;28;20076;-69
2022/03/10 08:01:30;;;;;;;22.30;13.68;;;4.90;90.70;;;;;;5031357;28;20079;-70
2022/03/10 08:03:57;;;;;;;24.95;14.75;;;5.00;90.60;;;;;;5032648;28;20045;-70
2022/03/10 08:06:24;;;;;;;18.45;12.15;;;5.20;90.30;;;;;;5051888;28;20077;-69
2022/03/10 08:08:50;;;;;;;24.17;13.40;;;5.40;90.30;;;;;;5035294;28;20540;-69
2022/03/10 08:11:16;;;;;;;20.52;13.65;;;5.60;89.60;;;;;;5035564;28;20045;-70
2022/03/10 08:13:42;;;;;;;23.27;13.60;;;5.80;89.00;;;;;;5036511;28;20417;-69
2022/03/10 08:16:07;;;;;;;20.92;13.65;;;6.00;88.20;;;;;;5035653;28;20041;-69
2022/03/10 08:18:33;;;;;;;19.13;13.23;;;6.30;88.70;;;;;;5035273;28;20057;-71
2022/03/10 08:21:00;;;;;;;21.70;13.15;;;6.90;87.60;;;;;;5035127;28;20544;-70
2022/03/10 08:23:27;;;;;;;21.48;12.98;;;7.30;83.00;;;;;;5035052;28;20057;-70
2022/03/10 08:25:53;;;;;;;22.33;14.30;;;7.80;81.30;;;;;;5036803;28;20128;-69
2022/03/10 08:28:18;;;;;;;18.05;13.23;;;8.50;81.60;;;;;;5045510;28;20115;-70
2022/03/10 08:30:44;;;;;;;21.85;14.70;;;9.20;80.00;;;;;;5056356;28;20509;-70
2022/03/10 08:33:10;;;;;;;19.13;14.05;;;9.70;76.20;;;;;;5056237;28;20037;-69
2022/03/10 08:35:36;;;;;;;17.75;11.95;;;10.00;74.00;;;;;;5054970;28;20048;-70
2022/03/10 08:38:02;;;;;;;18.52;13.80;;;10.30;72.60;;;;;;5071429;28;20045;-70
2022/03/10 08:40:28;;;;;;;17.85;13.07;;;10.40;70.10;;;;;;5055975;28;20098;-69
2022/03/10 08:42:55;;;;;;;18.88;14.25;;;10.60;69.70;;;;;;5054601;28;20072;-70
2022/03/10 08:45:25;;;;;;;20.92;13.23;;;10.90;68.50;;;;;;5054799;28;20041;-70
2022/03/10 08:47:51;;;;;;;21.13;14.20;;;11.20;66.00;;;;;;5088510;28;20412;-70
2022/03/10 08:50:17;;;;;;;19.95;13.88;;;11.40;66.40;;;;;;5054673;28;20041;-70
2022/03/10 08:52:43;;;;;;;21.50;13.57;;;11.60;65.50;;;;;;5055961;28;20047;-69
2022/03/10 08:55:10;;;;;;;18.98;14.15;;;11.80;63.70;;;;;;5056163;28;20133;-69
2022/03/10 08:57:36;;;;;;;18.23;13.98;;;12.10;63.50;;;;;;5054373;28;20083;-69
2022/03/10 09:00:04;;;;;;;18.30;13.73;;;12.50;62.60;;;;;;5053561;28;20048;-70
2022/03/10 09:02:31;;;;;;;20.00;13.70;;;12.80;59.40;;;;;;5087984;28;20135;-70
2022/03/10 09:04:57;;;;;;;19.85;14.50;;;13.10;57.90;;;;;;5054513;28;20131;-70
2022/03/10 09:07:22;;;;;;;23.13;15.70;;;13.20;56.40;;;;;;5070991;28;20679;-70
2022/03/10 09:09:48;;;;;;;19.35;14.63;;;13.30;55.20;;;;;;5054250;28;20049;-70
2022/03/10 09:12:14;;;;;;;22.92;14.45;;;13.50;54.60;;;;;;5087670;28;20045;-70
2022/03/10 09:14:40;;;;;;;21.55;14.65;;;13.60;53.60;;;;;;5087623;28;20044;-69
2022/03/10 09:17:06;;;;;;;17.77;12.82;;;13.80;53.70;;;;;;5054532;28;20044;-70
2022/03/10 09:19:31;;;;;;;20.45;15.80;;;14.00;53.60;;;;;;5087309;28;20513;-69
2022/03/10 09:21:59;;;;;;;20.15;14.90;;;14.10;52.30;;;;;;5087612;28;20091;-70
2022/03/10 09:24:25;;;;;;;18.38;14.38;;;14.30;52.30;;;;;;5056529;28;20140;-70
2022/03/10 09:26:51;;;;;;;21.85;15.55;;;14.50;52.40;;;;;;5070664;28;20041;-69
2022/03/10 09:29:17;;;;;;;20.48;15.60;;;14.80;52.70;;;;;;5066330;28;20039;-70
2022/03/10 09:31:43;;;;;;;19.67;14.95;;;15.00;50.60;;;;;;5033894;28;20124;-70
2022/03/10 09:34:08;;;;;;;18.88;14.48;;;15.10;50.90;;;;;;5067281;28;20045;-70
2022/03/10 09:36:34;;;;;;;22.73;15.48;;;15.30;51.80;;;;;;5067543;28;20128;-70
2022/03/10 09:39:00;;;;;;;20.17;14.32;;;15.50;49.80;;;;;;5033946;28;20508;-70
2022/03/10 09:41:28;;;;;;;19.67;14.15;;;15.60;48.00;;;;;;5033798;28;20524;-70
2022/03/10 09:43:55;;;;;;;20.13;15.77;;;15.60;47.50;;;;;;5033677;28;20041;-70
2022/03/10 09:46:21;;;;;;;20.75;15.93;;;15.60;49.50;;;;;;5034871;28;20037;-70
2022/03/10 09:48:47;;;;;;;21.20;15.63;;;15.70;48.40;;;;;;5033701;28;20413;-69
2022/03/10 09:51:13;;;;;;;19.50;14.98;;;15.70;48.10;;;;;;5035028;28;20056;-70
2022/03/10 09:53:39;;;;;;;18.88;14.45;;;15.90;48.80;;;;;;5034639;28;20608;-70
2022/03/10 09:56:06;;;;;;;22.00;14.93;;;16.00;47.30;;;;;;5033744;28;20052;-70
2022/03/10 09:58:32;;;;;;;19.42;15.95;;;16.20;47.60;;;;;;5031798;28;20386;-69
2022/03/10 10:00:59;;;;;;;20.40;16.13;;;16.40;48.40;;;;;;5033409;28;20374;-70
2022/03/10 10:03:25;;;;;;;19.05;14.68;;;16.70;46.60;;;;;;5033437;28;20684;-70
2022/03/10 10:06:00;;;;;;;20.15;14.20;;;16.80;47.60;;;;;;5033259;28;20050;-70
2022/03/10 10:08:26;;;;;;;20.38;15.82;;;16.90;45.50;;;;;;5033093;28;20493;-69
2022/03/10 10:10:55;;;;;;;19.20;15.15;;;16.80;45.80;;;;;;5034592;28;20079;-70
2022/03/10 10:13:28;;;;;;;21.33;16.30;;;16.90;45.00;;;;;;5034373;28;20082;-69
2022/03/10 10:16:04;;;;;;;19.63;14.90;;;17.00;45.50;;;;;;5034323;28;20432;-70
2022/03/10 10:18:31;;;;;;;21.13;15.30;;;17.10;44.40;;;;;;5032771;28;20057;-69
2022/03/10 10:20:57;;;;;;;20.45;15.70;;;17.10;44.10;;;;;;5034100;28;20575;-70
2022/03/10 10:23:31;;;;;;;18.77;15.65;;;17.20;45.00;;;;;;5066067;28;20037;-69
2022/03/10 10:26:06;;;;;;;20.35;16.35;;;17.40;45.90;;;;;;5032988;28;20501;-69
2022/03/10 10:28:48;;;;;;;20.63;16.42;;;17.60;46.60;;;;;;5031351;28;20390;-69
2022/03/10 10:31:21;;;;;;;20.10;16.38;;;18.10;46.80;;;;;;5032789;28;20056;-69
2022/03/10 10:34:00;;;;;;;21.20;15.85;;;18.40;46.90;;;;;;5034064;28;20095;-70
2022/03/10 10:36:29;;;;;;;20.73;16.30;;;18.60;44.60;;;;;;5032721;28;20046;-70
2022/03/10 10:39:17;;;;;;;20.70;16.58;;;18.70;44.60;;;;;;5032456;28;20520;-70
2022/03/10 10:41:48;;;;;;;20.25;16.52;;;19.00;45.00;;;;;;5065943;28;20049;-70
2022/03/10 10:44:20;;;;;;;22.30;17.13;;;19.10;45.10;;;;;;5032766;28;20037;-70
2022/03/10 10:46:51;;;;;;;23.40;17.15;;;19.20;43.60;;;;;;5043068;28;20452;-70
2022/03/10 10:49:20;;;;;;;23.55;17.00;;;19.20;43.30;;;;;;5053288;28;20036;-70
2022/03/10 10:51:48;;;;;;;19.73;17.17;;;19.10;42.80;;;;;;5052145;28;20045;-69
2022/03/10 10:54:23;;;;;;;20.48;17.08;;;19.20;43.00;;;;;;5053315;28;20041;-69
2022/03/10 10:57:01;;;;;;;23.90;16.85;;;19.30;43.70;;;;;;5053507;28;20049;-69
2022/03/10 10:59:38;;;;;;;21.30;17.10;;;19.50;43.30;;;;;;5050242;28;20080;-69
2022/03/10 11:02:11;;;;;;;21.98;16.65;;;19.50;42.90;;;;;;5052321;28;20187;-69
2022/03/10 11:04:40;;;;;;;22.40;16.92;;;19.60;42.10;;;;;;5052112;28;20099;-69
2022/03/10 11:07:09;;;;;;;19.58;15.63;;;19.80;43.20;;;;;;5052067;28;20041;-68
2022/03/10 11:09:36;;;;;;;22.38;16.77;;;19.90;42.00;;;;;;5051690;28;20515;-67
2022/03/10 11:12:02;;;;;;;20.75;15.95;;;19.90;42.70;;;;;;5048641;28;20385;-68
2022/03/10 11:14:28;;;;;;;21.45;16.73;;;19.90;41.00;;;;;;5048616;28;20037;-67
2022/03/10 11:16:55;;;;;;;22.20;17.05;;;19.80;41.40;;;;;;5051591;28;20049;-69
2022/03/10 11:19:28;;;;;;;23.00;17.65;;;19.80;42.00;;;;;;5052610;28;20140;-68
2022/03/10 11:22:31;;;;;;;20.60;16.33;;;20.00;41.80;;;;;;5034900;28;20076;-70
2022/03/10 11:25:32;;;;;;;22.10;16.90;;;20.00;40.70;;;;;;5051314;28;20438;-69
2022/03/10 11:28:10;;;;;;;24.85;16.67;;;19.90;41.20;;;;;;5038822;28;20041;-70
2022/03/10 11:30:36;;;;;;;21.10;17.60;;;20.10;42.10;;;;;;5051531;28;20079;-70
2022/03/10 11:33:12;;;;;;;22.85;18.45;;;20.30;42.20;;;;;;5085016;28;20041;-72
2022/03/10 11:35:43;;;;;;;24.23;17.55;;;20.40;40.20;;;;;;5051612;28;20048;-68
2022/03/10 11:38:10;;;;;;;22.23;17.15;;;20.40;40.90;;;;;;5051555;28;20045;-69
2022/03/10 11:40:46;;;;;;;22.48;18.05;;;20.30;40.70;;;;;;5052285;28;20100;-67
2022/03/10 11:43:20;;;;;;;24.13;17.75;;;20.20;40.20;;;;;;5051350;28;20497;-68
2022/03/10 11:45:46;;;;;;;24.08;17.90;;;20.20;40.60;;;;;;5051295;28;20049;-68
2022/03/10 11:48:24;;;;;;;25.58;19.15;;;20.00;41.00;;;;;;5051432;28;20043;-68
2022/03/10 11:50:51;;;;;;;24.42;16.83;;;19.90;40.70;;;;;;5051560;28;20483;-69
2022/03/10 11:53:16;;;;;;;22.63;17.60;;;19.90;40.50;;;;;;5051624;28;20048;-68
2022/03/10 11:55:43;;;;;;;27.20;18.63;;;19.80;40.10;;;;;;5051173;28;20460;-68
2022/03/10 11:58:11;;;;;;;24.17;18.95;;;19.70;39.70;;;;;;5048960;28;20083;-68
2022/03/10 12:00:49;;;;;;;24.10;17.88;;;19.70;40.90;;;;;;5051167;28;20045;-68
2022/03/10 12:03:19;;;;;;;22.08;17.77;;;19.90;42.10;;;;;;5051515;28;20060;-67
2022/03/10 12:05:56;;;;;;;25.08;18.30;;;20.30;42.20;;;;;;5051343;28;20064;-68
2022/03/10 12:08:24;;;;;;;24.13;17.65;;;20.50;39.70;;;;;;5051227;28;20509;-68
2022/03/10 12:10:51;;;;;;;22.98;15.98;;;20.20;38.60;;;;;;5050727;28;20037;-68
2022/03/10 12:13:23;;;;;;;23.98;17.63;;;19.80;39.30;;;;;;5053481;28;20041;-69
2022/03/10 12:15:50;;;;;;;25.08;18.23;;;19.50;40.10;;;;;;5052386;28;20381;-68
2022/03/10 12:18:18;;;;;;;23.02;17.50;;;19.20;41.10;;;;;;5050173;28;20123;-69
2022/03/10 12:20:45;;;;;;;22.20;16.67;;;19.00;40.10;;;;;;5050391;28;20389;-69
2022/03/10 12:23:14;;;;;;;24.40;17.27;;;18.70;39.90;;;;;;5050946;28;20037;-69
2022/03/10 12:25:43;;;;;;;25.55;18.63;;;18.60;40.50;;;;;;5050875;28;20077;-67
2022/03/10 12:28:53;;;;;;;24.10;17.08;;;18.80;41.60;;;;;;5048604;28;20068;-68
2022/03/10 12:31:22;;;;;;;23.27;16.42;;;18.90;41.60;;;;;;5069431;28;20048;-69
2022/03/10 12:33:49;;;;;;;28.25;18.98;;;19.00;41.20;;;;;;5050598;28;20500;-68
2022/03/10 12:36:34;;;;;;;24.67;18.38;;;19.10;41.10;;;;;;5052007;28;20036;-68
2022/03/10 12:39:04;;;;;;;27.33;18.13;;;19.30;41.80;;;;;;5050788;28;20045;-68